Time;durP1;ratioP1;P1;durP2;ratioP2;P2;SDS_P1;SDS_P2;PMS_P1;PMS_P2;Temp;Humidity;BMP_temperature;BMP_pressure;BME280_temperature;BME280_humidity;BME280_pressure;Samples;Min_cycle;Max_cycle;Signal;HPM_P1;HPM_P2
2021/04/15 00:00:47;;;;;;;9.27;6.30;;;1.30;99.90;;;;;;5053219;28;20210;-60
2021/04/15 00:03:16;;;;;;;10.73;6.10;;;1.30;99.90;;;;;;5053104;28;20209;-60
2021/04/15 00:05:43;;;;;;;8.63;6.00;;;1.20;99.90;;;;;;5052707;28;20202;-60
2021/04/15 00:08:10;;;;;;;7.80;6.23;;;1.20;99.90;;;;;;5053006;28;20251;-63
2021/04/15 00:10:39;;;;;;;8.53;6.37;;;1.10;99.90;;;;;;5052729;28;20214;-61
2021/04/15 00:13:10;;;;;;;9.60;6.40;;;1.10;99.90;;;;;;5052138;28;20221;-61
2021/04/15 00:15:36;;;;;;;9.83;6.00;;;1.00;99.90;;;;;;5053622;28;20216;-61
2021/04/15 00:18:02;;;;;;;10.27;6.63;;;1.00;99.90;;;;;;5053729;28;20222;-61
2021/04/15 00:20:29;;;;;;;7.93;6.23;;;1.00;99.90;;;;;;5053052;28;20206;-61
2021/04/15 00:22:55;;;;;;;9.43;6.30;;;1.00;99.90;;;;;;5052995;28;20232;-61
2021/04/15 00:25:21;;;;;;;9.00;6.13;;;1.00;99.90;;;;;;5052272;28;20323;-60
2021/04/15 00:27:47;;;;;;;11.57;6.23;;;0.90;99.90;;;;;;5052130;28;20748;-67
2021/04/15 00:30:16;;;;;;;7.87;5.87;;;0.80;99.90;;;;;;5052535;28;20595;-67
2021/04/15 00:32:42;;;;;;;8.80;6.03;;;0.80;99.90;;;;;;5052836;28;20210;-67
2021/04/15 00:35:10;;;;;;;8.27;6.27;;;0.80;99.90;;;;;;5052496;28;20582;-67
2021/04/15 00:37:36;;;;;;;9.20;6.23;;;0.70;99.90;;;;;;5052060;28;20229;-67
2021/04/15 00:40:03;;;;;;;8.27;6.00;;;0.80;99.90;;;;;;5051688;28;20205;-67
2021/04/15 00:42:29;;;;;;;6.67;5.77;;;0.70;99.90;;;;;;5052028;28;20212;-68
2021/04/15 00:44:55;;;;;;;7.93;5.93;;;0.70;99.90;;;;;;5051342;28;20202;-67
2021/04/15 00:47:27;;;;;;;9.00;6.20;;;0.80;99.90;;;;;;5051166;28;20232;-68
2021/04/15 00:49:57;;;;;;;8.33;6.13;;;0.80;99.90;;;;;;5051486;28;20259;-67
2021/04/15 00:52:27;;;;;;;9.27;6.23;;;0.80;99.90;;;;;;5051652;28;20214;-68
2021/04/15 00:54:58;;;;;;;7.07;5.83;;;0.80;99.90;;;;;;5051284;28;20208;-67
2021/04/15 00:57:28;;;;;;;8.00;6.13;;;0.80;99.90;;;;;;5051177;28;20237;-67
2021/04/15 00:59:54;;;;;;;9.37;5.83;;;0.70;99.90;;;;;;5050860;28;20233;-68
2021/04/15 01:02:23;;;;;;;7.67;6.43;;;0.50;99.90;;;;;;5051606;28;20205;-67
2021/04/15 01:04:52;;;;;;;9.60;6.20;;;0.60;99.90;;;;;;5051146;28;20206;-67
2021/04/15 01:07:18;;;;;;;7.73;6.03;;;0.50;99.90;;;;;;5051137;28;20234;-67
2021/04/15 01:09:46;;;;;;;8.57;6.10;;;0.40;99.90;;;;;;5050930;28;20217;-67
2021/04/15 01:12:27;;;;;;;9.30;6.67;;;0.30;99.90;;;;;;5050677;28;20267;-67
2021/04/15 01:15:03;;;;;;;8.10;5.90;;;0.30;99.90;;;;;;5050987;28;20208;-68
2021/04/15 01:17:34;;;;;;;10.50;7.17;;;0.30;99.90;;;;;;5050927;28;20346;-67
2021/04/15 01:20:31;;;;;;;10.40;6.43;;;0.40;99.90;;;;;;5050972;28;20229;-67
2021/04/15 01:23:08;;;;;;;9.80;7.03;;;0.50;99.90;;;;;;5051340;28;20214;-67
2021/04/15 01:25:57;;;;;;;10.63;6.43;;;0.50;99.90;;;;;;5051399;28;20216;-68
2021/04/15 01:28:52;;;;;;;7.27;5.90;;;0.50;99.90;;;;;;5051559;28;20259;-67
2021/04/15 01:31:23;;;;;;;8.67;5.83;;;0.50;99.90;;;;;;5051846;28;20264;-67
2021/04/15 01:33:57;;;;;;;8.43;6.47;;;0.50;99.90;;;;;;5051000;28;20202;-68
2021/04/15 01:36:28;;;;;;;7.63;6.10;;;0.50;99.90;;;;;;5051580;28;20283;-68
2021/04/15 01:38:58;;;;;;;8.10;5.93;;;0.40;99.90;;;;;;5053152;28;20229;-68
2021/04/15 01:41:31;;;;;;;9.37;5.90;;;0.30;99.90;;;;;;5055766;28;20205;-67
2021/04/15 01:44:02;;;;;;;8.37;6.43;;;0.30;99.90;;;;;;5051683;28;20634;-68
2021/04/15 01:46:31;;;;;;;8.47;6.40;;;0.20;99.90;;;;;;5051717;28;20234;-66
2021/04/15 01:49:00;;;;;;;7.57;5.87;;;0.20;99.90;;;;;;5054078;28;20202;-67
2021/04/15 01:51:29;;;;;;;9.43;6.40;;;0.30;99.90;;;;;;5054087;28;20232;-67
2021/04/15 01:54:03;;;;;;;8.40;5.70;;;0.30;99.90;;;;;;5054013;28;20212;-67
2021/04/15 01:56:35;;;;;;;8.20;6.00;;;0.30;99.90;;;;;;5054256;28;20225;-68
2021/04/15 01:59:06;;;;;;;7.93;6.00;;;0.40;99.90;;;;;;5053820;28;20348;-67
2021/04/15 02:01:35;;;;;;;10.70;6.50;;;0.40;99.90;;;;;;5053885;28;20673;-67
2021/04/15 02:04:05;;;;;;;6.63;5.93;;;0.50;99.90;;;;;;5053685;28;20221;-67
2021/04/15 02:06:35;;;;;;;7.33;5.73;;;0.50;99.90;;;;;;5053661;28;20238;-67
2021/04/15 02:09:07;;;;;;;8.90;6.27;;;0.50;99.90;;;;;;5054716;28;20205;-67
2021/04/15 02:11:39;;;;;;;8.17;6.17;;;0.60;99.90;;;;;;5054604;28;20391;-67
2021/04/15 02:14:09;;;;;;;7.80;6.53;;;0.60;99.90;;;;;;5054189;28;20210;-67
2021/04/15 02:16:38;;;;;;;7.63;5.90;;;0.70;99.90;;;;;;5054560;28;20234;-67
2021/04/15 02:19:08;;;;;;;8.53;6.33;;;0.70;99.90;;;;;;5053904;28;20221;-67
2021/04/15 02:21:40;;;;;;;7.57;6.00;;;0.70;99.90;;;;;;5055227;28;20205;-67
2021/04/15 02:24:14;;;;;;;8.60;5.70;;;0.60;99.90;;;;;;5053844;28;20209;-67
2021/04/15 02:26:42;;;;;;;9.43;6.70;;;0.70;99.90;;;;;;5056461;28;20298;-68
2021/04/15 02:29:16;;;;;;;9.97;6.90;;;0.60;99.90;;;;;;5062768;28;20206;-68
2021/04/15 02:31:48;;;;;;;9.63;6.30;;;0.60;99.90;;;;;;5057965;28;20209;-68
2021/04/15 02:34:20;;;;;;;9.30;6.07;;;0.50;99.90;;;;;;5058325;28;20210;-67
2021/04/15 02:36:49;;;;;;;8.03;5.93;;;0.40;99.90;;;;;;5056913;28;20222;-68
2021/04/15 02:39:21;;;;;;;7.90;5.90;;;0.50;99.90;;;;;;5056613;28;20267;-68
2021/04/15 02:41:50;;;;;;;7.40;5.83;;;0.50;99.90;;;;;;5056650;28;20221;-68
2021/04/15 02:44:25;;;;;;;7.23;6.00;;;0.50;99.90;;;;;;5055691;28;20209;-68
2021/04/15 02:46:55;;;;;;;8.40;6.17;;;0.50;99.90;;;;;;5055765;28;20216;-68
2021/04/15 02:49:25;;;;;;;6.80;5.97;;;0.50;99.90;;;;;;5054947;28;20216;-68
2021/04/15 02:51:56;;;;;;;8.10;6.33;;;0.40;99.90;;;;;;5054840;28;20213;-68
2021/04/15 02:54:27;;;;;;;9.07;6.47;;;0.30;99.90;;;;;;5055109;28;20213;-70
2021/04/15 02:56:58;;;;;;;7.37;5.73;;;0.20;99.90;;;;;;5055432;28;20647;-68
2021/04/15 02:59:31;;;;;;;8.67;5.97;;;0.30;99.90;;;;;;5053639;28;20682;-68
2021/04/15 03:02:03;;;;;;;7.43;5.50;;;0.20;99.90;;;;;;5053367;28;20202;-68
2021/04/15 03:04:31;;;;;;;9.93;6.13;;;0.20;99.90;;;;;;5053005;28;20217;-68
2021/04/15 03:07:00;;;;;;;6.80;5.33;;;0.10;99.90;;;;;;5053254;28;20237;-66
2021/04/15 03:09:28;;;;;;;7.43;5.73;;;0.00;99.90;;;;;;5053272;28;20205;-66
2021/04/15 03:11:58;;;;;;;7.93;6.00;;;-0.10;99.90;;;;;;5053140;28;20237;-66
2021/04/15 03:14:30;;;;;;;7.23;6.13;;;-0.10;99.90;;;;;;5052861;28;20205;-66
2021/04/15 03:17:00;;;;;;;6.67;5.60;;;0.00;99.90;;;;;;5052813;28;20237;-66
2021/04/15 03:19:32;;;;;;;7.83;5.83;;;0.00;99.90;;;;;;5053108;28;20213;-66
2021/04/15 03:22:03;;;;;;;8.13;6.30;;;0.00;99.90;;;;;;5053135;28;20284;-66
2021/04/15 03:24:32;;;;;;;9.10;5.93;;;0.10;99.90;;;;;;5052925;28;20259;-66
2021/04/15 03:27:05;;;;;;;9.60;5.97;;;0.10;99.90;;;;;;5052313;28;20717;-66
2021/04/15 03:29:37;;;;;;;6.80;5.23;;;0.10;99.90;;;;;;5052573;28;20216;-66
2021/04/15 03:32:13;;;;;;;7.17;5.50;;;0.10;99.90;;;;;;5052251;28;20212;-66
2021/04/15 03:34:45;;;;;;;6.57;5.47;;;0.00;99.90;;;;;;5052380;28;20209;-66
2021/04/15 03:37:15;;;;;;;6.37;5.73;;;0.00;99.90;;;;;;5052730;28;20234;-66
2021/04/15 03:39:42;;;;;;;7.00;5.47;;;0.00;99.90;;;;;;5052401;28;20205;-66
2021/04/15 03:42:18;;;;;;;7.80;5.93;;;-0.10;99.90;;;;;;5052081;28;20212;-67
2021/04/15 03:44:49;;;;;;;10.23;6.20;;;-0.10;99.90;;;;;;5052376;28;20212;-65
2021/04/15 03:47:19;;;;;;;6.83;5.60;;;-0.10;99.90;;;;;;5052414;28;20225;-66
2021/04/15 03:49:50;;;;;;;6.97;5.40;;;-0.20;99.90;;;;;;5051849;28;20210;-66
2021/04/15 03:52:21;;;;;;;7.70;6.27;;;-0.20;99.90;;;;;;5052371;28;20213;-66
2021/04/15 03:54:50;;;;;;;9.40;5.70;;;-0.10;99.90;;;;;;5051714;28;20251;-66
2021/04/15 03:57:19;;;;;;;9.33;6.40;;;-0.10;99.90;;;;;;5051948;28;20225;-66
2021/04/15 03:59:50;;;;;;;8.10;5.90;;;-0.10;99.90;;;;;;5051906;28;20210;-66
2021/04/15 04:02:20;;;;;;;8.23;6.03;;;0.00;99.90;;;;;;5052154;28;20205;-65
2021/04/15 04:04:51;;;;;;;11.60;6.17;;;0.00;99.90;;;;;;5052327;28;20217;-67
2021/04/15 04:07:24;;;;;;;7.20;5.70;;;-0.10;99.90;;;;;;5051967;28;20232;-66
2021/04/15 04:09:56;;;;;;;6.70;5.77;;;-0.10;99.90;;;;;;5051843;28;20213;-66
2021/04/15 04:12:29;;;;;;;10.70;6.30;;;-0.10;99.90;;;;;;5052860;28;20209;-66
2021/04/15 04:15:02;;;;;;;12.33;6.73;;;-0.10;99.90;;;;;;5052328;28;20677;-66
2021/04/15 04:17:37;;;;;;;8.70;6.43;;;-0.20;99.90;;;;;;5052824;28;20230;-66
2021/04/15 04:20:05;;;;;;;9.13;6.70;;;-0.20;99.90;;;;;;5053475;28;20209;-66
2021/04/15 04:22:38;;;;;;;8.47;6.20;;;-0.20;99.90;;;;;;5054909;28;20228;-66
2021/04/15 04:25:11;;;;;;;8.47;6.43;;;-0.20;99.90;;;;;;5052736;28;20578;-66
2021/04/15 04:27:42;;;;;;;7.33;6.13;;;-0.20;99.90;;;;;;5052557;28;20217;-65
2021/04/15 04:30:11;;;;;;;8.63;6.67;;;-0.20;99.90;;;;;;5053064;28;20212;-65
2021/04/15 04:32:40;;;;;;;9.90;5.87;;;-0.10;99.90;;;;;;5053107;28;20210;-66
2021/04/15 04:35:08;;;;;;;7.80;6.27;;;-0.10;99.90;;;;;;5052780;28;20213;-66
2021/04/15 04:37:38;;;;;;;9.00;5.93;;;-0.10;99.90;;;;;;5052065;28;20263;-66
2021/04/15 04:40:08;;;;;;;7.07;5.83;;;-0.10;99.90;;;;;;5051675;28;20216;-66
2021/04/15 04:42:40;;;;;;;7.17;5.50;;;0.00;99.90;;;;;;5051779;28;20232;-65
2021/04/15 04:45:08;;;;;;;9.00;5.87;;;0.00;99.90;;;;;;5051523;28;20210;-66
2021/04/15 04:47:43;;;;;;;9.33;6.50;;;0.00;99.90;;;;;;5051695;28;20236;-65
2021/04/15 04:50:20;;;;;;;7.03;6.30;;;0.00;99.90;;;;;;5052011;28;20212;-65
2021/04/15 04:52:46;;;;;;;9.50;6.37;;;0.10;99.90;;;;;;5051492;28;20598;-66
2021/04/15 04:55:27;;;;;;;8.20;5.57;;;0.10;99.90;;;;;;5051307;28;20202;-66
2021/04/15 04:57:53;;;;;;;8.27;5.87;;;0.00;99.90;;;;;;5051363;28;20240;-66
2021/04/15 05:00:22;;;;;;;7.13;5.47;;;0.00;99.90;;;;;;5052377;28;20206;-66
2021/04/15 05:02:53;;;;;;;8.77;5.50;;;0.00;99.90;;;;;;5052462;28;20213;-67
2021/04/15 05:05:23;;;;;;;10.13;5.70;;;0.00;99.90;;;;;;5052727;28;20202;-66
2021/04/15 05:07:57;;;;;;;10.97;5.73;;;0.00;99.90;;;;;;5051867;28;20235;-67
2021/04/15 05:10:25;;;;;;;9.13;6.00;;;0.00;99.90;;;;;;5051648;28;20201;-66
2021/04/15 05:13:01;;;;;;;12.93;7.83;;;0.10;99.90;;;;;;5051543;28;20217;-67
2021/04/15 05:15:27;;;;;;;14.03;7.83;;;0.20;99.90;;;;;;5051405;28;20209;-66
2021/04/15 05:17:55;;;;;;;11.93;7.80;;;0.40;99.90;;;;;;5051545;28;20229;-66
2021/04/15 05:20:24;;;;;;;9.67;7.60;;;0.50;99.90;;;;;;5051881;28;20202;-66
2021/04/15 05:22:56;;;;;;;10.50;7.00;;;0.70;99.90;;;;;;5054912;28;20209;-66
2021/04/15 05:25:34;;;;;;;8.93;6.77;;;0.70;99.90;;;;;;5055416;28;20632;-66
2021/04/15 05:28:02;;;;;;;12.63;7.07;;;0.90;99.90;;;;;;5055967;28;20221;-66
2021/04/15 05:30:40;;;;;;;12.00;7.80;;;1.20;99.90;;;;;;5055469;28;20273;-67
2021/04/15 05:33:11;;;;;;;11.93;8.00;;;1.40;99.90;;;;;;5055252;28;20193;-65
2021/04/15 05:35:42;;;;;;;14.23;7.77;;;1.60;99.90;;;;;;5055220;28;20263;-64
2021/04/15 05:38:10;;;;;;;9.73;6.60;;;1.90;99.90;;;;;;5055414;28;20295;-65
2021/04/15 05:40:37;;;;;;;10.93;6.90;;;2.10;99.90;;;;;;5055775;28;20209;-64
2021/04/15 05:43:31;;;;;;;16.30;7.30;;;2.70;99.90;;;;;;5056264;28;20725;-63
2021/04/15 05:46:06;;;;;;;10.90;6.07;;;4.50;99.90;;;;;;5057188;28;20257;-67
2021/04/15 05:48:34;;;;;;;10.50;5.67;;;6.90;99.90;;;;;;5056949;28;20614;-66
2021/04/15 05:51:07;;;;;;;7.30;5.50;;;9.10;93.60;;;;;;5056809;28;20228;-67
2021/04/15 05:53:37;;;;;;;9.27;5.93;;;10.90;89.60;;;;;;5055510;28;20254;-65
2021/04/15 05:56:08;;;;;;;12.87;5.87;;;12.50;78.30;;;;;;5055696;28;20419;-66
2021/04/15 05:58:39;;;;;;;8.57;5.50;;;13.40;72.30;;;;;;5055314;28;20225;-67
2021/04/15 06:01:09;;;;;;;10.17;6.97;;;14.20;69.30;;;;;;5056463;28;20206;-66
2021/04/15 06:03:47;;;;;;;10.10;5.77;;;14.90;65.70;;;;;;5058046;28;20749;-65
2021/04/15 06:06:17;;;;;;;7.53;6.10;;;15.80;62.70;;;;;;5056785;28;20562;-65
2021/04/15 06:08:47;;;;;;;10.90;6.27;;;16.50;58.50;;;;;;5055587;28;20659;-66
2021/04/15 06:11:28;;;;;;;13.10;7.20;;;16.50;56.50;;;;;;5055881;28;20236;-65
2021/04/15 06:13:58;;;;;;;9.03;5.70;;;16.60;56.70;;;;;;5055413;28;20411;-65
2021/04/15 06:16:31;;;;;;;12.30;5.70;;;17.20;55.90;;;;;;5055310;28;20233;-66
2021/04/15 06:19:03;;;;;;;14.90;9.63;;;18.00;54.20;;;;;;5054737;28;20311;-65
2021/04/15 06:21:34;;;;;;;13.17;8.60;;;18.90;52.00;;;;;;5054891;28;20212;-66
2021/04/15 06:24:05;;;;;;;8.17;6.27;;;19.40;49.80;;;;;;5054983;28;20210;-66
2021/04/15 06:26:34;;;;;;;7.90;5.70;;;20.00;48.60;;;;;;5055420;28;20233;-67
2021/04/15 06:29:06;;;;;;;7.13;5.80;;;20.00;47.60;;;;;;5054964;28;20206;-66
2021/04/15 06:31:36;;;;;;;6.22;5.07;;;20.20;47.20;;;;;;5054796;28;20275;-66
2021/04/15 06:34:06;;;;;;;12.67;5.37;;;20.50;46.80;;;;;;5054284;28;20211;-66
2021/04/15 06:36:38;;;;;;;13.50;5.25;;;20.80;46.00;;;;;;5054452;28;20222;-66
2021/04/15 06:39:13;;;;;;;11.52;5.28;;;21.30;45.10;;;;;;5054506;28;20233;-67
2021/04/15 06:42:11;;;;;;;10.50;4.90;;;21.50;44.00;;;;;;5053605;28;20665;-66
2021/04/15 06:45:04;;;;;;;7.00;4.57;;;21.40;44.60;;;;;;5053391;28;20197;-67
2021/04/15 06:48:07;;;;;;;7.05;4.38;;;21.80;43.90;;;;;;5053409;28;20225;-65
2021/04/15 06:50:43;;;;;;;7.82;4.57;;;22.20;43.40;;;;;;5052780;28;20621;-66
2021/04/15 06:53:32;;;;;;;7.47;4.40;;;22.30;42.70;;;;;;5053638;28;20673;-66
2021/04/15 06:56:17;;;;;;;7.43;4.07;;;22.70;42.40;;;;;;5053965;28;20312;-66
2021/04/15 06:59:02;;;;;;;11.30;4.57;;;23.10;41.70;;;;;;5053521;28;20686;-66
2021/04/15 07:01:47;;;;;;;6.88;5.00;;;23.30;41.10;;;;;;5053651;28;20216;-66
2021/04/15 07:04:17;;;;;;;7.78;5.80;;;23.80;40.70;;;;;;5053042;28;20674;-68
2021/04/15 07:06:56;;;;;;;6.65;4.47;;;24.30;39.70;;;;;;5052585;28;20320;-68
2021/04/15 07:09:42;;;;;;;6.93;4.18;;;24.50;39.50;;;;;;5052913;28;20212;-69
2021/04/15 07:12:46;;;;;;;7.18;3.75;;;24.50;39.30;;;;;;5053041;28;20205;-67
2021/04/15 07:15:42;;;;;;;6.15;4.15;;;24.10;39.10;;;;;;5052917;28;20216;-70
2021/04/15 07:18:29;;;;;;;4.43;3.55;;;24.30;39.60;;;;;;5053374;28;20226;-70
2021/04/15 07:21:30;;;;;;;3.88;3.50;;;24.70;39.20;;;;;;5052485;28;20208;-69
2021/04/15 07:24:25;;;;;;;6.40;4.72;;;24.70;39.10;;;;;;5053212;28;20239;-70
2021/04/15 07:27:19;;;;;;;6.25;3.70;;;25.20;38.60;;;;;;5053926;28;20284;-71
2021/04/15 07:30:18;;;;;;;5.75;3.50;;;25.30;37.70;;;;;;5053146;28;20610;-69
2021/04/15 07:33:04;;;;;;;5.25;3.65;;;25.10;38.40;;;;;;5052746;28;20262;-68
2021/04/15 07:35:47;;;;;;;6.35;3.88;;;25.50;37.90;;;;;;5050489;28;20210;-70
2021/04/15 07:38:39;;;;;;;8.93;5.28;;;25.30;38.10;;;;;;5052972;28;20221;-66
2021/04/15 07:41:22;;;;;;;4.60;3.22;;;25.60;37.00;;;;;;5052752;28;20210;-68
2021/04/15 07:44:19;;;;;;;4.55;3.55;;;26.00;37.00;;;;;;5058451;28;20438;-69
2021/04/15 07:46:52;;;;;;;5.93;3.35;;;25.90;36.30;;;;;;5072673;28;20619;-67
2021/04/15 07:49:56;;;;;;;5.97;3.58;;;26.30;36.20;;;;;;5071321;28;20221;-65
2021/04/15 07:53:10;;;;;;;5.20;3.25;;;26.70;35.50;;;;;;5067720;28;20258;-67
2021/04/15 07:56:10;;;;;;;5.97;3.75;;;26.90;35.00;;;;;;4989610;28;20214;-66
2021/04/15 07:58:45;;;;;;;6.32;3.15;;;27.10;34.60;;;;;;5052007;28;20198;-65
2021/04/15 08:01:36;;;;;;;5.38;3.55;;;27.00;33.90;;;;;;5051925;28;20266;-65
2021/04/15 08:04:39;;;;;;;15.82;4.07;;;26.90;33.50;;;;;;5051975;28;20217;-66
2021/04/15 08:07:34;;;;;;;4.93;3.05;;;26.10;34.70;;;;;;5051458;28;20241;-64
2021/04/15 08:10:19;;;;;;;5.00;3.05;;;25.80;35.30;;;;;;5051466;28;20259;-66
2021/04/15 08:13:01;;;;;;;7.60;3.30;;;25.60;35.20;;;;;;5051694;28;20214;-66
2021/04/15 08:15:49;;;;;;;4.93;3.30;;;25.50;34.60;;;;;;5051943;28;20210;-65
2021/04/15 08:18:34;;;;;;;4.07;3.25;;;24.80;35.60;;;;;;5052153;28;20205;-65
2021/04/15 08:21:13;;;;;;;4.78;3.20;;;23.30;36.90;;;;;;5051851;28;20201;-64
2021/04/15 08:24:22;;;;;;;40.40;7.03;;;21.20;38.90;;;;;;5051507;28;20209;-65
2021/04/15 08:27:28;;;;;;;6.43;3.77;;;18.80;42.10;;;;;;5051693;28;20626;-65
2021/04/15 08:30:18;;;;;;;5.53;3.50;;;16.60;44.80;;;;;;5051105;28;20591;-64
2021/04/15 08:32:56;;;;;;;6.00;3.97;;;14.90;47.80;;;;;;5048933;28;20213;-63
2021/04/15 08:35:32;;;;;;;4.47;3.30;;;13.70;49.80;;;;;;5050988;28;20224;-65
2021/04/15 08:38:10;;;;;;;4.30;3.60;;;13.00;51.30;;;;;;5050958;28;20705;-64
2021/04/15 08:40:48;;;;;;;5.07;3.57;;;12.30;53.50;;;;;;5051576;28;20213;-65
2021/04/15 08:43:25;;;;;;;5.87;4.10;;;11.70;53.90;;;;;;5051659;28;20209;-64
2021/04/15 08:45:58;;;;;;;5.73;3.70;;;11.30;55.60;;;;;;5051607;28;20208;-64
2021/04/15 08:48:36;;;;;;;5.17;3.67;;;11.20;55.70;;;;;;5050986;28;20803;-64
2021/04/15 08:51:49;;;;;;;6.53;3.80;;;10.70;56.20;;;;;;5051472;28;20209;-63
2021/04/15 08:54:51;;;;;;;6.90;3.63;;;10.30;57.70;;;;;;5051155;28;20208;-65
2021/04/15 08:57:33;;;;;;;4.47;3.17;;;10.00;58.80;;;;;;5053471;28;20237;-64
2021/04/15 09:00:11;;;;;;;5.90;3.77;;;9.80;59.50;;;;;;5055455;28;20236;-65
2021/04/15 09:02:46;;;;;;;6.47;3.50;;;9.80;60.10;;;;;;5055743;28;20235;-64
2021/04/15 09:05:20;;;;;;;9.77;3.87;;;9.80;60.10;;;;;;5055529;28;20209;-67
2021/04/15 09:07:57;;;;;;;25.87;4.63;;;9.60;61.30;;;;;;5055528;28;20225;-63
2021/04/15 09:10:29;;;;;;;33.40;6.43;;;9.70;59.30;;;;;;5055691;28;20193;-64
2021/04/15 09:13:16;;;;;;;39.33;6.50;;;9.90;60.20;;;;;;5055270;28;20189;-60
2021/04/15 09:16:02;;;;;;;7.20;3.50;;;9.90;59.20;;;;;;5054625;28;20275;-62
2021/04/15 09:18:35;;;;;;;6.20;3.60;;;10.10;58.90;;;;;;5054856;28;20248;-62
2021/04/15 09:21:19;;;;;;;32.30;5.37;;;10.30;58.90;;;;;;5055812;28;20568;-64
2021/04/15 09:23:52;;;;;;;5.90;3.30;;;10.60;59.20;;;;;;5055136;28;20201;-64
2021/04/15 09:26:24;;;;;;;3.67;3.17;;;11.20;57.90;;;;;;5055820;28;20325;-63
2021/04/15 09:29:06;;;;;;;4.77;3.30;;;11.70;56.40;;;;;;5055224;28;20218;-62
2021/04/15 09:31:50;;;;;;;5.90;2.80;;;11.90;56.10;;;;;;5055457;28;20233;-62
2021/04/15 09:34:56;;;;;;;4.27;2.40;;;11.90;55.20;;;;;;5055830;28;20185;-62
2021/04/15 09:38:15;;;;;;;5.17;2.80;;;12.10;52.30;;;;;;5054831;28;20225;-60
2021/04/15 09:40:47;;;;;;;4.30;2.70;;;12.50;51.20;;;;;;5033097;28;20237;-60
2021/04/15 09:43:27;;;;;;;6.23;3.10;;;12.50;51.40;;;;;;5054522;28;20205;-63
2021/04/15 09:46:06;;;;;;;18.57;3.63;;;12.60;52.00;;;;;;5055025;28;20198;-60
2021/04/15 09:48:54;;;;;;;2.87;2.50;;;13.10;52.40;;;;;;5055800;28;20232;-63
2021/04/15 09:51:47;;;;;;;4.40;2.80;;;13.50;50.40;;;;;;5056382;28;20202;-64
2021/04/15 09:54:23;;;;;;;3.53;2.43;;;13.20;50.50;;;;;;5055706;28;20619;-60
2021/04/15 09:57:02;;;;;;;4.07;2.63;;;12.90;51.00;;;;;;5054628;28;20229;-62
2021/04/15 09:59:48;;;;;;;4.13;2.30;;;12.70;50.50;;;;;;5054380;28;20190;-60
2021/04/15 10:02:23;;;;;;;2.77;2.50;;;12.80;50.10;;;;;;5054041;28;20213;-60
2021/04/15 10:04:54;;;;;;;6.80;2.80;;;12.80;49.60;;;;;;5053943;28;20205;-62
2021/04/15 10:07:24;;;;;;;6.03;3.60;;;12.70;51.00;;;;;;5052957;28;20291;-62
2021/04/15 10:10:04;;;;;;;3.87;2.77;;;12.60;52.80;;;;;;5053440;28;20225;-60
2021/04/15 10:12:56;;;;;;;6.53;2.93;;;12.60;54.80;;;;;;5054095;28;20209;-61
2021/04/15 10:15:50;;;;;;;3.87;3.03;;;12.50;54.80;;;;;;5054155;28;20190;-61
2021/04/15 10:18:37;;;;;;;4.67;2.63;;;12.10;55.50;;;;;;5053955;28;20190;-64
2021/04/15 10:21:17;;;;;;;5.93;2.70;;;12.00;55.30;;;;;;5054165;28;20201;-61
2021/04/15 10:24:10;;;;;;;5.37;2.67;;;11.90;55.00;;;;;;5054474;28;20201;-61
2021/04/15 10:27:03;;;;;;;4.00;2.70;;;11.90;54.90;;;;;;5052090;28;20638;-62
2021/04/15 10:30:09;;;;;;;3.57;2.20;;;11.90;56.10;;;;;;5053283;28;20232;-61
2021/04/15 10:32:53;;;;;;;4.80;2.20;;;12.00;56.20;;;;;;5053402;28;20205;-61
2021/04/15 10:35:43;;;;;;;3.17;2.40;;;12.10;55.30;;;;;;5053077;28;20220;-61
2021/04/15 10:38:45;;;;;;;4.60;2.20;;;12.20;54.80;;;;;;5052695;28;20565;-61
2021/04/15 10:41:45;;;;;;;6.47;2.70;;;12.00;55.30;;;;;;5053141;28;20189;-61
2021/04/15 10:44:30;;;;;;;15.10;3.57;;;11.90;56.20;;;;;;5045485;28;20263;-61
2021/04/15 10:47:10;;;;;;;3.93;2.00;;;11.90;58.20;;;;;;5052834;28;20221;-60
2021/04/15 10:49:47;;;;;;;3.30;2.00;;;11.90;57.70;;;;;;5052838;28;20209;-61
2021/04/15 10:52:25;;;;;;;2.53;2.00;;;11.70;57.10;;;;;;5052948;28;20237;-61
2021/04/15 10:54:52;;;;;;;2.93;2.20;;;11.50;57.80;;;;;;5052927;28;20228;-62
2021/04/15 10:57:23;;;;;;;4.33;1.93;;;11.50;58.80;;;;;;5052955;28;20225;-62
2021/04/15 10:59:50;;;;;;;3.90;2.00;;;11.30;59.20;;;;;;5052960;28;20202;-64
2021/04/15 11:02:31;;;;;;;6.37;1.93;;;11.20;59.40;;;;;;5052662;28;20221;-62
2021/04/15 11:05:18;;;;;;;2.27;2.07;;;11.20;61.40;;;;;;5052682;28;20296;-60
2021/04/15 11:07:45;;;;;;;2.57;2.13;;;11.30;62.60;;;;;;5052214;28;20320;-61
2021/04/15 11:10:20;;;;;;;2.80;2.10;;;11.40;62.80;;;;;;5052321;28;20251;-62
2021/04/15 11:12:46;;;;;;;4.03;1.70;;;11.60;60.90;;;;;;5052511;28;20189;-60
2021/04/15 11:15:21;;;;;;;2.47;1.97;;;11.80;60.30;;;;;;5052208;28;20238;-59
2021/04/15 11:17:49;;;;;;;2.83;2.00;;;12.00;59.60;;;;;;5052883;28;20316;-61
2021/04/15 11:20:29;;;;;;;2.63;2.00;;;12.30;57.40;;;;;;5052728;28;20228;-62
2021/04/15 11:23:03;;;;;;;5.93;2.60;;;12.60;56.00;;;;;;5053302;28;20630;-61
2021/04/15 11:25:33;;;;;;;2.87;2.03;;;12.70;55.00;;;;;;5052358;28;20674;-62
2021/04/15 11:28:08;;;;;;;3.17;2.37;;;12.70;54.90;;;;;;5052145;28;20711;-60
2021/04/15 11:30:54;;;;;;;3.80;2.40;;;12.70;54.30;;;;;;5052276;28;20193;-60
2021/04/15 11:33:33;;;;;;;3.03;2.20;;;12.50;54.80;;;;;;5052290;28;20194;-61
2021/04/15 11:36:14;;;;;;;3.73;2.63;;;12.40;55.10;;;;;;5052312;28;20225;-61
2021/04/15 11:38:42;;;;;;;3.03;2.40;;;11.90;55.50;;;;;;5052054;28;20645;-60
2021/04/15 11:41:16;;;;;;;3.40;2.50;;;11.40;55.80;;;;;;5051844;28;20558;-60
2021/04/15 11:43:43;;;;;;;4.67;2.20;;;11.00;57.00;;;;;;5051823;28;20210;-61
2021/04/15 11:46:21;;;;;;;2.77;1.93;;;11.10;56.20;;;;;;5052446;28;20626;-60
2021/04/15 11:49:05;;;;;;;3.00;2.07;;;11.20;56.80;;;;;;5052388;28;20206;-60
2021/04/15 11:51:38;;;;;;;2.53;1.90;;;11.20;56.00;;;;;;5052447;28;20193;-61
2021/04/15 11:54:12;;;;;;;3.47;2.27;;;11.30;56.40;;;;;;5052789;28;20562;-61
2021/04/15 11:56:42;;;;;;;3.73;2.10;;;11.10;57.70;;;;;;5052352;28;20227;-61
2021/04/15 11:59:19;;;;;;;5.13;2.50;;;11.00;58.20;;;;;;5051960;28;20208;-61
2021/04/15 12:01:47;;;;;;;3.37;2.40;;;11.10;59.10;;;;;;5051931;28;20209;-62
2021/04/15 12:04:20;;;;;;;3.27;2.10;;;11.50;58.70;;;;;;5051665;28;20229;-61
2021/04/15 12:06:52;;;;;;;2.80;2.00;;;11.60;57.70;;;;;;5051416;28;20237;-62
2021/04/15 12:09:22;;;;;;;4.17;2.30;;;11.30;57.30;;;;;;5051731;28;20689;-62
2021/04/15 12:12:01;;;;;;;2.70;2.00;;;11.20;58.30;;;;;;5051383;28;20496;-62
2021/04/15 12:14:27;;;;;;;2.57;2.23;;;11.10;56.90;;;;;;5051067;28;20209;-62
2021/04/15 12:17:02;;;;;;;6.77;3.20;;;11.10;58.70;;;;;;5051125;28;20237;-62
2021/04/15 12:19:39;;;;;;;3.10;2.20;;;11.40;57.90;;;;;;5051311;28;20190;-63
2021/04/15 12:22:19;;;;;;;2.70;2.07;;;11.60;55.80;;;;;;5051137;28;20205;-62
2021/04/15 12:24:48;;;;;;;3.33;2.37;;;12.00;53.80;;;;;;5051335;28;20432;-61
2021/04/15 12:27:20;;;;;;;4.07;2.33;;;12.40;52.50;;;;;;5050848;28;20232;-62
2021/04/15 12:29:52;;;;;;;2.90;2.43;;;12.50;51.80;;;;;;5051028;28;20601;-61
2021/04/15 12:32:32;;;;;;;4.00;2.07;;;13.00;52.90;;;;;;5051248;28;20677;-61
2021/04/15 12:35:13;;;;;;;4.37;2.20;;;13.40;55.80;;;;;;5051547;28;20295;-60
2021/04/15 12:37:42;;;;;;;2.43;2.17;;;13.30;57.30;;;;;;5050670;28;20225;-62
2021/04/15 12:40:18;;;;;;;3.30;2.10;;;12.90;57.20;;;;;;5051701;28;20631;-63
2021/04/15 12:42:46;;;;;;;2.63;2.00;;;12.60;57.80;;;;;;5052032;28;20228;-63
2021/04/15 12:45:22;;;;;;;2.53;2.00;;;12.00;58.60;;;;;;5051715;28;20562;-63
2021/04/15 12:47:50;;;;;;;2.17;1.80;;;11.50;60.20;;;;;;5051397;28;20247;-64
2021/04/15 12:50:16;;;;;;;2.80;1.80;;;11.30;58.80;;;;;;5051882;28;20201;-62
2021/04/15 12:52:42;;;;;;;2.57;2.00;;;11.40;59.70;;;;;;5051711;28;20211;-63
2021/04/15 12:55:14;;;;;;;2.97;2.20;;;11.40;58.90;;;;;;5051597;28;20685;-63
2021/04/15 12:57:40;;;;;;;3.60;2.20;;;11.50;58.90;;;;;;5051391;28;20308;-61
2021/04/15 13:00:10;;;;;;;2.07;1.87;;;11.80;58.80;;;;;;5051013;28;20201;-61
2021/04/15 13:02:36;;;;;;;3.03;1.97;;;12.20;56.30;;;;;;5050998;28;20201;-62
2021/04/15 13:05:09;;;;;;;4.03;2.07;;;12.70;55.30;;;;;;5050727;28;20580;-63
2021/04/15 13:07:38;;;;;;;2.13;1.93;;;13.00;53.20;;;;;;5050516;28;20275;-62
2021/04/15 13:10:29;;;;;;;2.43;2.17;;;13.50;52.10;;;;;;5051126;28;20280;-61
2021/04/15 13:12:57;;;;;;;3.60;2.40;;;13.60;52.10;;;;;;5050498;28;20603;-61
2021/04/15 13:15:42;;;;;;;3.40;2.27;;;13.50;51.30;;;;;;5051027;28;20205;-61
2021/04/15 13:18:29;;;;;;;4.40;2.23;;;13.30;52.80;;;;;;5050806;28;20580;-60
2021/04/15 13:21:05;;;;;;;2.20;2.00;;;13.30;51.80;;;;;;5050787;28;20202;-64
2021/04/15 13:23:35;;;;;;;2.60;2.20;;;13.30;52.30;;;;;;5050622;28;20259;-60
2021/04/15 13:26:28;;;;;;;5.93;2.90;;;13.00;53.00;;;;;;5050422;28;20701;-62
2021/04/15 13:29:17;;;;;;;3.53;2.50;;;12.60;54.30;;;;;;5050333;28;20221;-61
2021/04/15 13:31:47;;;;;;;2.90;2.30;;;12.10;55.80;;;;;;5050557;28;20201;-61
2021/04/15 13:34:17;;;;;;;3.93;3.00;;;11.40;57.10;;;;;;5050647;28;20645;-61
2021/04/15 13:36:45;;;;;;;4.43;3.00;;;11.00;59.40;;;;;;5050897;28;20226;-61